Aviation Digital Data Service (ADDS)

Output produced by METARs form (0105 UTC 24 May 2022)
found at http://www.aviationweather.gov/metar/data/
 
EIME 240000Z 26009KT 9999 FEW018 BKN050 08/07 Q1003
TAF EIME 232300Z 2400/2409 26008KT 9999 SCT020 BKN040
       
TAF EIKN 231700Z 2318/2418 29010KT 9999 FEW010 BKN025 
     TEMPO 2318/2320 32015KT -SHRA SCT018CB 
     BECMG 2400/2402 VRB03KT 
     BECMG 2406/2408 30011KT 
     TEMPO 2411/2415 -SHRA FEW020CB
       
EICK 240100Z 28007KT 9999 FEW020 08/06 Q1005 NOSIG
TAF EICK 232300Z 2400/2424 29009KT 9999 FEW018 BKN040 
     BECMG 2417/2419 26010KT 
     BECMG 2420/2422 22010KT 
     BECMG 2422/2424 3000 -RADZ BKN004
       
TAF EIDL 231700Z 2318/2403 31014KT 9999 FEW015 BKN035 
     TEMPO 2318/2321 -SHRA SCT018CB
       
EIDW 240100Z 27009KT 9999 FEW016 BKN050 BKN250 08/07 Q1003 NOSIG
TAF EIDW 232300Z 2400/2424 27009KT 9999 SCT020 BKN040 
     BECMG 2421/2423 23010KT
       
TAF EIKY 231700Z 2318/2403 29008KT 9999 SCT025 
     TEMPO 2318/2319 -SHRA FEW018CB
       
EINN 240100Z 30005KT 9999 FEW018CB BKN030 10/08 Q1005 NOSIG
TAF EINN 232300Z 2400/2424 26007KT 9999 FEW020 BKN040 
     BECMG 2408/2410 29010KT 
     BECMG 2416/2418 26015KT 
     BECMG 2418/2420 23015KT 
     BECMG 2420/2422 20012KT 
     BECMG 2421/2423 -RA BKN012 
     PROB40 
     TEMPO 2423/2424 4000 -RADZ BKN008
       
EISG 231930Z 30012KT CAVOK 11/08 Q1003
TAF EISG 232300Z 2400/2409 30012KT 9999 SCT020 BKN040
       
EIWF 232230Z 29002KT 9999 FEW018CB SCT040 08/07 Q1004
TAF EIWF 232300Z 2400/2409 29006KT 9999 FEW020 SCT040